sensor_id;sensor_type;location;lat;lon;timestamp;temperature;humidity
17452;DHT22;8843;48.838;9.324;2023-04-20T00:00:06;11.50;78.20
17452;DHT22;8843;48.838;9.324;2023-04-20T00:02:35;11.50;79.00
17452;DHT22;8843;48.838;9.324;2023-04-20T00:05:03;11.50;78.20
17452;DHT22;8843;48.838;9.324;2023-04-20T00:07:31;11.50;78.20
17452;DHT22;8843;48.838;9.324;2023-04-20T00:09:58;11.50;78.20
17452;DHT22;8843;48.838;9.324;2023-04-20T00:12:25;11.50;78.10
17452;DHT22;8843;48.838;9.324;2023-04-20T00:14:52;11.50;78.10
17452;DHT22;8843;48.838;9.324;2023-04-20T00:17:19;11.40;78.00
17452;DHT22;8843;48.838;9.324;2023-04-20T00:19:45;11.50;78.10
17452;DHT22;8843;48.838;9.324;2023-04-20T00:22:12;11.40;78.00
17452;DHT22;8843;48.838;9.324;2023-04-20T00:24:41;11.40;77.90
17452;DHT22;8843;48.838;9.324;2023-04-20T00:27:07;11.40;77.90
17452;DHT22;8843;48.838;9.324;2023-04-20T00:29:34;11.40;77.90
17452;DHT22;8843;48.838;9.324;2023-04-20T00:32:01;11.40;77.90
17452;DHT22;8843;48.838;9.324;2023-04-20T00:34:28;11.40;77.90
17452;DHT22;8843;48.838;9.324;2023-04-20T00:36:55;11.40;77.80
17452;DHT22;8843;48.838;9.324;2023-04-20T00:39:22;11.40;77.80
17452;DHT22;8843;48.838;9.324;2023-04-20T00:41:50;11.40;77.90
17452;DHT22;8843;48.838;9.324;2023-04-20T00:44:17;11.40;77.80
17452;DHT22;8843;48.838;9.324;2023-04-20T00:46:44;11.40;77.80
17452;DHT22;8843;48.838;9.324;2023-04-20T00:49:11;11.40;77.70
17452;DHT22;8843;48.838;9.324;2023-04-20T00:51:38;11.40;77.60
17452;DHT22;8843;48.838;9.324;2023-04-20T00:54:05;11.30;77.60
17452;DHT22;8843;48.838;9.324;2023-04-20T00:56:32;11.30;77.60
17452;DHT22;8843;48.838;9.324;2023-04-20T00:59:01;11.30;77.60
17452;DHT22;8843;48.838;9.324;2023-04-20T01:01:28;11.30;77.60
17452;DHT22;8843;48.838;9.324;2023-04-20T01:03:56;11.30;77.50
17452;DHT22;8843;48.838;9.324;2023-04-20T01:06:23;11.30;77.40
17452;DHT22;8843;48.838;9.324;2023-04-20T01:08:50;11.30;77.40
17452;DHT22;8843;48.838;9.324;2023-04-20T01:11:17;11.30;77.40
17452;DHT22;8843;48.838;9.324;2023-04-20T01:13:44;11.30;77.30
17452;DHT22;8843;48.838;9.324;2023-04-20T01:16:13;11.30;77.40
17452;DHT22;8843;48.838;9.324;2023-04-20T01:18:44;11.30;77.30
17452;DHT22;8843;48.838;9.324;2023-04-20T01:21:12;11.30;77.20
17452;DHT22;8843;48.838;9.324;2023-04-20T01:23:40;11.30;77.20
17452;DHT22;8843;48.838;9.324;2023-04-20T01:26:08;11.30;77.20
17452;DHT22;8843;48.838;9.324;2023-04-20T01:28:35;11.30;77.20
17452;DHT22;8843;48.838;9.324;2023-04-20T01:31:03;11.30;77.20
17452;DHT22;8843;48.838;9.324;2023-04-20T01:33:31;11.20;77.10
17452;DHT22;8843;48.838;9.324;2023-04-20T01:35:58;11.20;77.10
17452;DHT22;8843;48.838;9.324;2023-04-20T01:38:25;11.20;77.10
17452;DHT22;8843;48.838;9.324;2023-04-20T01:40:54;11.20;77.10
17452;DHT22;8843;48.838;9.324;2023-04-20T01:43:21;11.20;77.00
17452;DHT22;8843;48.838;9.324;2023-04-20T01:45:48;11.20;76.90
17452;DHT22;8843;48.838;9.324;2023-04-20T01:48:15;11.20;77.00
17452;DHT22;8843;48.838;9.324;2023-04-20T01:50:42;11.20;76.90
17452;DHT22;8843;48.838;9.324;2023-04-20T01:53:08;11.20;76.90
17452;DHT22;8843;48.838;9.324;2023-04-20T01:55:38;11.20;76.80
17452;DHT22;8843;48.838;9.324;2023-04-20T01:58:07;11.20;76.80
17452;DHT22;8843;48.838;9.324;2023-04-20T02:00:33;11.20;76.70
17452;DHT22;8843;48.838;9.324;2023-04-20T02:03:00;11.20;76.80
17452;DHT22;8843;48.838;9.324;2023-04-20T02:05:27;11.10;76.80
17452;DHT22;8843;48.838;9.324;2023-04-20T02:07:54;11.20;76.80
17452;DHT22;8843;48.838;9.324;2023-04-20T02:10:21;11.10;76.60
17452;DHT22;8843;48.838;9.324;2023-04-20T02:12:48;11.10;76.70
17452;DHT22;8843;48.838;9.324;2023-04-20T02:15:17;11.10;76.60
17452;DHT22;8843;48.838;9.324;2023-04-20T02:17:44;11.10;76.60
17452;DHT22;8843;48.838;9.324;2023-04-20T02:20:11;11.10;76.60
17452;DHT22;8843;48.838;9.324;2023-04-20T02:22:39;11.10;76.60
17452;DHT22;8843;48.838;9.324;2023-04-20T02:25:06;11.10;76.50
17452;DHT22;8843;48.838;9.324;2023-04-20T02:27:34;11.10;76.60
17452;DHT22;8843;48.838;9.324;2023-04-20T02:30:01;11.10;76.50
17452;DHT22;8843;48.838;9.324;2023-04-20T02:32:29;11.10;76.50
17452;DHT22;8843;48.838;9.324;2023-04-20T02:34:56;11.10;76.40
17452;DHT22;8843;48.838;9.324;2023-04-20T02:37:23;11.10;76.50
17452;DHT22;8843;48.838;9.324;2023-04-20T02:39:50;11.10;76.50
17452;DHT22;8843;48.838;9.324;2023-04-20T02:42:17;11.10;77.10
17452;DHT22;8843;48.838;9.324;2023-04-20T02:44:43;11.10;76.30
17452;DHT22;8843;48.838;9.324;2023-04-20T02:47:10;11.10;76.40
17452;DHT22;8843;48.838;9.324;2023-04-20T02:49:38;11.10;77.10
17452;DHT22;8843;48.838;9.324;2023-04-20T02:52:05;11.00;76.20
17452;DHT22;8843;48.838;9.324;2023-04-20T02:54:32;11.00;76.20
17452;DHT22;8843;48.838;9.324;2023-04-20T02:56:59;11.00;76.20
17452;DHT22;8843;48.838;9.324;2023-04-20T02:59:27;11.00;76.10
17452;DHT22;8843;48.838;9.324;2023-04-20T03:01:54;11.00;76.00
17452;DHT22;8843;48.838;9.324;2023-04-20T03:04:21;11.00;76.10
17452;DHT22;8843;48.838;9.324;2023-04-20T03:06:50;11.00;76.10
17452;DHT22;8843;48.838;9.324;2023-04-20T03:09:18;11.00;76.10
17452;DHT22;8843;48.838;9.324;2023-04-20T03:11:45;11.00;76.10
17452;DHT22;8843;48.838;9.324;2023-04-20T03:14:11;11.00;76.00
17452;DHT22;8843;48.838;9.324;2023-04-20T03:16:38;11.00;76.00
17452;DHT22;8843;48.838;9.324;2023-04-20T03:19:06;11.00;76.00
17452;DHT22;8843;48.838;9.324;2023-04-20T03:21:33;11.00;76.00
17452;DHT22;8843;48.838;9.324;2023-04-20T03:24:02;11.00;75.90
17452;DHT22;8843;48.838;9.324;2023-04-20T03:26:30;11.00;75.90
17452;DHT22;8843;48.838;9.324;2023-04-20T03:28:57;11.00;76.00
17452;DHT22;8843;48.838;9.324;2023-04-20T03:31:24;11.00;75.90
17452;DHT22;8843;48.838;9.324;2023-04-20T03:33:51;11.00;75.90
17452;DHT22;8843;48.838;9.324;2023-04-20T03:36:18;11.00;75.80
17452;DHT22;8843;48.838;9.324;2023-04-20T03:38:45;10.90;75.80
17452;DHT22;8843;48.838;9.324;2023-04-20T03:41:13;11.00;75.80
17452;DHT22;8843;48.838;9.324;2023-04-20T03:43:40;10.90;75.70
17452;DHT22;8843;48.838;9.324;2023-04-20T03:46:07;10.90;76.50
17452;DHT22;8843;48.838;9.324;2023-04-20T03:48:34;10.90;75.70
17452;DHT22;8843;48.838;9.324;2023-04-20T03:51:01;10.90;75.70
17452;DHT22;8843;48.838;9.324;2023-04-20T03:53:27;10.90;75.60
17452;DHT22;8843;48.838;9.324;2023-04-20T03:55:54;10.90;75.70
17452;DHT22;8843;48.838;9.324;2023-04-20T03:58:23;10.90;75.50
17452;DHT22;8843;48.838;9.324;2023-04-20T04:00:50;10.90;75.50
17452;DHT22;8843;48.838;9.324;2023-04-20T04:03:16;10.90;75.60
17452;DHT22;8843;48.838;9.324;2023-04-20T04:05:43;10.90;75.50
17452;DHT22;8843;48.838;9.324;2023-04-20T04:08:10;10.90;75.50
17452;DHT22;8843;48.838;9.324;2023-04-20T04:10:37;10.90;75.60
17452;DHT22;8843;48.838;9.324;2023-04-20T04:13:04;10.90;75.60
17452;DHT22;8843;48.838;9.324;2023-04-20T04:15:32;10.90;75.50
17452;DHT22;8843;48.838;9.324;2023-04-20T04:17:59;10.80;76.20
17452;DHT22;8843;48.838;9.324;2023-04-20T04:20:26;10.80;75.40
17452;DHT22;8843;48.838;9.324;2023-04-20T04:22:52;10.80;75.30
17452;DHT22;8843;48.838;9.324;2023-04-20T04:25:20;10.80;75.30
17452;DHT22;8843;48.838;9.324;2023-04-20T04:27:47;10.80;75.30
17452;DHT22;8843;48.838;9.324;2023-04-20T04:30:15;10.80;75.30
17452;DHT22;8843;48.838;9.324;2023-04-20T04:32:43;10.80;75.30
17452;DHT22;8843;48.838;9.324;2023-04-20T04:35:11;10.80;76.00
17452;DHT22;8843;48.838;9.324;2023-04-20T04:37:38;10.80;75.10
17452;DHT22;8843;48.838;9.324;2023-04-20T04:40:06;10.80;75.20
17452;DHT22;8843;48.838;9.324;2023-04-20T04:42:33;10.80;75.20
17452;DHT22;8843;48.838;9.324;2023-04-20T04:45:00;10.80;76.00
17452;DHT22;8843;48.838;9.324;2023-04-20T04:47:32;10.80;75.20
17452;DHT22;8843;48.838;9.324;2023-04-20T04:50:01;10.50;78.40
17452;DHT22;8843;48.838;9.324;2023-04-20T04:52:29;10.80;76.90
17452;DHT22;8843;48.838;9.324;2023-04-20T04:54:56;10.80;75.80
17452;DHT22;8843;48.838;9.324;2023-04-20T04:57:24;10.80;76.10
17452;DHT22;8843;48.838;9.324;2023-04-20T04:59:51;10.70;75.30
17452;DHT22;8843;48.838;9.324;2023-04-20T05:02:19;10.80;75.30
17452;DHT22;8843;48.838;9.324;2023-04-20T05:04:46;10.70;75.30
17452;DHT22;8843;48.838;9.324;2023-04-20T05:07:14;11.20;85.60
17452;DHT22;8843;48.838;9.324;2023-04-20T05:09:41;11.70;78.60
17452;DHT22;8843;48.838;9.324;2023-04-20T05:12:08;11.40;77.60
17452;DHT22;8843;48.838;9.324;2023-04-20T05:14:35;11.00;75.50
17452;DHT22;8843;48.838;9.324;2023-04-20T05:17:03;10.90;73.70
17452;DHT22;8843;48.838;9.324;2023-04-20T05:19:30;10.70;73.30
17452;DHT22;8843;48.838;9.324;2023-04-20T05:21:57;10.70;73.80
17452;DHT22;8843;48.838;9.324;2023-04-20T05:24:25;10.60;73.40
17452;DHT22;8843;48.838;9.324;2023-04-20T05:26:52;10.60;73.60
17452;DHT22;8843;48.838;9.324;2023-04-20T05:29:19;10.60;73.50
17452;DHT22;8843;48.838;9.324;2023-04-20T05:31:46;10.60;73.60
17452;DHT22;8843;48.838;9.324;2023-04-20T05:34:12;10.60;71.90
17452;DHT22;8843;48.838;9.324;2023-04-20T05:36:39;10.30;83.70
17452;DHT22;8843;48.838;9.324;2023-04-20T05:39:06;10.70;73.80
17452;DHT22;8843;48.838;9.324;2023-04-20T05:41:35;10.60;75.60
17452;DHT22;8843;48.838;9.324;2023-04-20T05:44:01;10.50;74.90
17452;DHT22;8843;48.838;9.324;2023-04-20T05:46:28;10.50;74.20
17452;DHT22;8843;48.838;9.324;2023-04-20T05:48:55;10.40;73.90
17452;DHT22;8843;48.838;9.324;2023-04-20T05:51:22;10.40;72.90
17452;DHT22;8843;48.838;9.324;2023-04-20T05:53:53;10.40;73.10
17452;DHT22;8843;48.838;9.324;2023-04-20T05:56:20;10.50;73.10
17452;DHT22;8843;48.838;9.324;2023-04-20T05:58:49;10.40;72.80
17452;DHT22;8843;48.838;9.324;2023-04-20T06:01:16;10.40;72.80
17452;DHT22;8843;48.838;9.324;2023-04-20T06:03:43;10.40;72.80
17452;DHT22;8843;48.838;9.324;2023-04-20T06:06:11;10.40;72.80
17452;DHT22;8843;48.838;9.324;2023-04-20T06:08:38;10.40;72.90
17452;DHT22;8843;48.838;9.324;2023-04-20T06:11:05;10.50;73.00
17452;DHT22;8843;48.838;9.324;2023-04-20T06:13:32;10.40;73.10
17452;DHT22;8843;48.838;9.324;2023-04-20T06:16:03;10.40;73.10
17452;DHT22;8843;48.838;9.324;2023-04-20T06:18:35;10.50;76.50
17452;DHT22;8843;48.838;9.324;2023-04-20T06:21:02;10.50;75.00
17452;DHT22;8843;48.838;9.324;2023-04-20T06:23:29;10.50;73.10
17452;DHT22;8843;48.838;9.324;2023-04-20T06:25:56;10.40;73.10
17452;DHT22;8843;48.838;9.324;2023-04-20T06:28:23;10.40;73.40
17452;DHT22;8843;48.838;9.324;2023-04-20T06:30:50;10.40;73.40
17452;DHT22;8843;48.838;9.324;2023-04-20T06:33:18;10.40;73.40
17452;DHT22;8843;48.838;9.324;2023-04-20T06:35:45;10.40;73.30
17452;DHT22;8843;48.838;9.324;2023-04-20T06:38:12;10.40;73.30
17452;DHT22;8843;48.838;9.324;2023-04-20T06:40:39;10.40;73.00
17452;DHT22;8843;48.838;9.324;2023-04-20T06:43:06;10.40;73.50
17452;DHT22;8843;48.838;9.324;2023-04-20T06:45:32;10.40;73.70
17452;DHT22;8843;48.838;9.324;2023-04-20T06:48:00;10.40;73.60
17452;DHT22;8843;48.838;9.324;2023-04-20T06:50:28;10.40;73.60
17452;DHT22;8843;48.838;9.324;2023-04-20T06:52:55;10.40;73.70
17452;DHT22;8843;48.838;9.324;2023-04-20T06:55:22;10.40;73.80
17452;DHT22;8843;48.838;9.324;2023-04-20T06:57:48;10.40;73.80
17452;DHT22;8843;48.838;9.324;2023-04-20T07:00:16;10.40;74.00
17452;DHT22;8843;48.838;9.324;2023-04-20T07:02:44;10.40;74.00
17452;DHT22;8843;48.838;9.324;2023-04-20T07:05:11;10.40;74.00
17452;DHT22;8843;48.838;9.324;2023-04-20T07:07:40;10.40;74.80
17452;DHT22;8843;48.838;9.324;2023-04-20T07:10:09;10.40;74.20
17452;DHT22;8843;48.838;9.324;2023-04-20T07:12:37;10.40;74.20
17452;DHT22;8843;48.838;9.324;2023-04-20T07:15:05;10.40;74.30
17452;DHT22;8843;48.838;9.324;2023-04-20T07:17:33;10.40;74.40
17452;DHT22;8843;48.838;9.324;2023-04-20T07:20:00;10.40;74.40
17452;DHT22;8843;48.838;9.324;2023-04-20T07:22:31;10.40;74.40
17452;DHT22;8843;48.838;9.324;2023-04-20T07:25:00;10.40;74.50
17452;DHT22;8843;48.838;9.324;2023-04-20T07:27:28;10.40;74.60
17452;DHT22;8843;48.838;9.324;2023-04-20T07:29:55;10.40;74.60
17452;DHT22;8843;48.838;9.324;2023-04-20T07:32:22;10.40;74.70
17452;DHT22;8843;48.838;9.324;2023-04-20T07:34:49;10.40;74.70
17452;DHT22;8843;48.838;9.324;2023-04-20T07:37:16;10.40;74.70
17452;DHT22;8843;48.838;9.324;2023-04-20T07:39:43;10.40;75.60
17452;DHT22;8843;48.838;9.324;2023-04-20T07:42:11;10.40;74.90
17452;DHT22;8843;48.838;9.324;2023-04-20T07:44:38;10.40;74.90
17452;DHT22;8843;48.838;9.324;2023-04-20T07:47:05;10.40;75.00
17452;DHT22;8843;48.838;9.324;2023-04-20T07:49:35;10.40;75.10
17452;DHT22;8843;48.838;9.324;2023-04-20T07:52:03;10.40;75.10
17452;DHT22;8843;48.838;9.324;2023-04-20T07:54:30;10.40;75.20
17452;DHT22;8843;48.838;9.324;2023-04-20T07:56:57;10.40;75.30
17452;DHT22;8843;48.838;9.324;2023-04-20T07:59:26;10.40;74.90
17452;DHT22;8843;48.838;9.324;2023-04-20T08:01:57;10.40;75.30
17452;DHT22;8843;48.838;9.324;2023-04-20T08:04:25;10.30;74.70
17452;DHT22;8843;48.838;9.324;2023-04-20T08:06:52;10.40;75.40
17452;DHT22;8843;48.838;9.324;2023-04-20T08:09:19;10.40;76.20
17452;DHT22;8843;48.838;9.324;2023-04-20T08:11:46;10.40;75.50
17452;DHT22;8843;48.838;9.324;2023-04-20T08:14:13;10.40;75.40
17452;DHT22;8843;48.838;9.324;2023-04-20T08:16:42;10.40;75.60
17452;DHT22;8843;48.838;9.324;2023-04-20T08:19:08;10.40;75.60
17452;DHT22;8843;48.838;9.324;2023-04-20T08:21:35;10.30;75.50
17452;DHT22;8843;48.838;9.324;2023-04-20T08:24:03;10.40;75.60
17452;DHT22;8843;48.838;9.324;2023-04-20T08:26:30;10.30;75.60
17452;DHT22;8843;48.838;9.324;2023-04-20T08:28:58;10.30;75.60
17452;DHT22;8843;48.838;9.324;2023-04-20T08:31:25;10.30;75.60
17452;DHT22;8843;48.838;9.324;2023-04-20T08:33:54;10.30;75.60
17452;DHT22;8843;48.838;9.324;2023-04-20T08:36:21;10.30;75.70
17452;DHT22;8843;48.838;9.324;2023-04-20T08:38:56;10.30;75.80
17452;DHT22;8843;48.838;9.324;2023-04-20T08:41:30;10.30;75.70
17452;DHT22;8843;48.838;9.324;2023-04-20T08:43:57;10.30;75.80
17452;DHT22;8843;48.838;9.324;2023-04-20T08:46:24;10.30;75.80
17452;DHT22;8843;48.838;9.324;2023-04-20T08:48:53;10.30;75.90
17452;DHT22;8843;48.838;9.324;2023-04-20T08:51:22;10.30;75.90
17452;DHT22;8843;48.838;9.324;2023-04-20T08:53:51;10.30;75.90
17452;DHT22;8843;48.838;9.324;2023-04-20T08:56:32;10.30;75.90
17452;DHT22;8843;48.838;9.324;2023-04-20T08:59:00;10.30;75.90
17452;DHT22;8843;48.838;9.324;2023-04-20T09:01:28;10.30;76.00
17452;DHT22;8843;48.838;9.324;2023-04-20T09:03:57;10.30;76.00
17452;DHT22;8843;48.838;9.324;2023-04-20T09:06:24;10.30;76.10
17452;DHT22;8843;48.838;9.324;2023-04-20T09:08:51;10.30;76.10
17452;DHT22;8843;48.838;9.324;2023-04-20T09:11:22;10.30;76.10
17452;DHT22;8843;48.838;9.324;2023-04-20T09:13:59;10.30;76.00
17452;DHT22;8843;48.838;9.324;2023-04-20T09:16:27;10.30;76.20
17452;DHT22;8843;48.838;9.324;2023-04-20T09:18:56;10.30;76.30
17452;DHT22;8843;48.838;9.324;2023-04-20T09:21:24;10.30;76.30
17452;DHT22;8843;48.838;9.324;2023-04-20T09:23:59;10.30;76.30
17452;DHT22;8843;48.838;9.324;2023-04-20T09:26:26;10.30;76.40
17452;DHT22;8843;48.838;9.324;2023-04-20T09:28:53;10.30;76.40
17452;DHT22;8843;48.838;9.324;2023-04-20T09:31:21;10.30;76.40
17452;DHT22;8843;48.838;9.324;2023-04-20T09:33:59;10.30;76.50
17452;DHT22;8843;48.838;9.324;2023-04-20T09:36:37;10.30;76.50
17452;DHT22;8843;48.838;9.324;2023-04-20T09:39:07;10.30;76.50
17452;DHT22;8843;48.838;9.324;2023-04-20T09:41:35;10.30;76.60
17452;DHT22;8843;48.838;9.324;2023-04-20T09:44:02;10.30;76.60
17452;DHT22;8843;48.838;9.324;2023-04-20T09:46:31;10.20;76.50
17452;DHT22;8843;48.838;9.324;2023-04-20T09:49:00;10.30;76.60
17452;DHT22;8843;48.838;9.324;2023-04-20T09:51:29;10.30;76.60
17452;DHT22;8843;48.838;9.324;2023-04-20T09:53:57;10.20;76.50
17452;DHT22;8843;48.838;9.324;2023-04-20T09:56:24;10.30;76.70
17452;DHT22;8843;48.838;9.324;2023-04-20T09:58:52;10.30;76.70
17452;DHT22;8843;48.838;9.324;2023-04-20T10:01:20;10.30;76.80
17452;DHT22;8843;48.838;9.324;2023-04-20T10:03:47;10.30;76.80
17452;DHT22;8843;48.838;9.324;2023-04-20T10:06:21;10.30;77.50
17452;DHT22;8843;48.838;9.324;2023-04-20T10:08:49;10.20;76.70
17452;DHT22;8843;48.838;9.324;2023-04-20T10:11:28;10.20;76.70
17452;DHT22;8843;48.838;9.324;2023-04-20T10:13:55;10.20;76.80
17452;DHT22;8843;48.838;9.324;2023-04-20T10:16:22;10.20;76.80
17452;DHT22;8843;48.838;9.324;2023-04-20T10:19:00;10.20;76.50
17452;DHT22;8843;48.838;9.324;2023-04-20T10:21:29;10.20;76.70
17452;DHT22;8843;48.838;9.324;2023-04-20T10:23:57;10.20;77.00
17452;DHT22;8843;48.838;9.324;2023-04-20T10:26:35;10.20;77.60
17452;DHT22;8843;48.838;9.324;2023-04-20T10:29:02;10.20;77.00
17452;DHT22;8843;48.838;9.324;2023-04-20T10:31:34;10.20;77.00
17452;DHT22;8843;48.838;9.324;2023-04-20T10:34:02;10.20;77.10
17452;DHT22;8843;48.838;9.324;2023-04-20T10:36:31;10.20;77.10
17452;DHT22;8843;48.838;9.324;2023-04-20T10:38:59;10.20;76.90
17452;DHT22;8843;48.838;9.324;2023-04-20T10:41:29;10.20;77.30
17452;DHT22;8843;48.838;9.324;2023-04-20T10:44:06;10.20;77.30
17452;DHT22;8843;48.838;9.324;2023-04-20T10:46:33;10.20;77.40
17452;DHT22;8843;48.838;9.324;2023-04-20T10:49:01;10.20;77.10
17452;DHT22;8843;48.838;9.324;2023-04-20T10:51:29;10.20;77.40
17452;DHT22;8843;48.838;9.324;2023-04-20T10:53:58;10.20;77.70
17452;DHT22;8843;48.838;9.324;2023-04-20T10:56:25;10.20;77.80
17452;DHT22;8843;48.838;9.324;2023-04-20T10:58:52;10.20;77.90
17452;DHT22;8843;48.838;9.324;2023-04-20T11:01:19;10.20;78.00
17452;DHT22;8843;48.838;9.324;2023-04-20T11:03:49;10.20;78.10
17452;DHT22;8843;48.838;9.324;2023-04-20T11:06:16;10.20;78.00
17452;DHT22;8843;48.838;9.324;2023-04-20T11:08:45;10.20;78.30
17452;DHT22;8843;48.838;9.324;2023-04-20T11:11:19;10.20;78.40
17452;DHT22;8843;48.838;9.324;2023-04-20T11:13:46;10.20;79.20
17452;DHT22;8843;48.838;9.324;2023-04-20T11:16:15;10.20;78.60
17452;DHT22;8843;48.838;9.324;2023-04-20T11:18:49;10.20;78.70
17452;DHT22;8843;48.838;9.324;2023-04-20T11:21:17;10.10;78.80
17452;DHT22;8843;48.838;9.324;2023-04-20T11:23:46;10.20;79.00
17452;DHT22;8843;48.838;9.324;2023-04-20T11:26:13;10.20;79.10
17452;DHT22;8843;48.838;9.324;2023-04-20T11:28:50;10.20;79.90
17452;DHT22;8843;48.838;9.324;2023-04-20T11:31:17;10.20;79.10
17452;DHT22;8843;48.838;9.324;2023-04-20T11:33:45;10.10;79.60
17452;DHT22;8843;48.838;9.324;2023-04-20T11:36:18;10.20;80.80
17452;DHT22;8843;48.838;9.324;2023-04-20T11:38:46;10.20;81.20
17452;DHT22;8843;48.838;9.324;2023-04-20T11:41:15;10.20;80.60
17452;DHT22;8843;48.838;9.324;2023-04-20T11:43:42;10.20;80.60
17452;DHT22;8843;48.838;9.324;2023-04-20T11:46:13;10.20;81.00
17452;DHT22;8843;48.838;9.324;2023-04-20T11:48:40;10.20;80.60
17452;DHT22;8843;48.838;9.324;2023-04-20T11:51:07;10.20;80.30
17452;DHT22;8843;48.838;9.324;2023-04-20T11:53:34;10.20;81.60
17452;DHT22;8843;48.838;9.324;2023-04-20T11:56:02;11.10;79.50
17452;DHT22;8843;48.838;9.324;2023-04-20T11:58:30;10.60;79.40
17452;DHT22;8843;48.838;9.324;2023-04-20T12:00:56;10.30;80.10
17452;DHT22;8843;48.838;9.324;2023-04-20T12:03:24;10.10;80.00
17452;DHT22;8843;48.838;9.324;2023-04-20T12:05:52;10.10;80.70
17452;DHT22;8843;48.838;9.324;2023-04-20T12:08:18;10.00;81.00
17452;DHT22;8843;48.838;9.324;2023-04-20T12:10:45;10.00;81.00
17452;DHT22;8843;48.838;9.324;2023-04-20T12:13:14;9.90;82.10
17452;DHT22;8843;48.838;9.324;2023-04-20T12:15:40;9.90;82.40
17452;DHT22;8843;48.838;9.324;2023-04-20T12:18:07;9.90;81.90
17452;DHT22;8843;48.838;9.324;2023-04-20T12:20:35;9.90;81.50
17452;DHT22;8843;48.838;9.324;2023-04-20T12:23:02;9.80;81.60
17452;DHT22;8843;48.838;9.324;2023-04-20T12:25:29;9.80;81.80
17452;DHT22;8843;48.838;9.324;2023-04-20T12:27:56;9.80;82.00
17452;DHT22;8843;48.838;9.324;2023-04-20T12:30:24;9.80;81.60
17452;DHT22;8843;48.838;9.324;2023-04-20T12:32:51;9.80;82.70
17452;DHT22;8843;48.838;9.324;2023-04-20T12:35:18;9.80;81.60
17452;DHT22;8843;48.838;9.324;2023-04-20T12:37:45;9.80;81.60
17452;DHT22;8843;48.838;9.324;2023-04-20T12:40:12;9.80;81.70
17452;DHT22;8843;48.838;9.324;2023-04-20T12:42:39;9.80;82.10
17452;DHT22;8843;48.838;9.324;2023-04-20T12:45:07;9.80;82.30
17452;DHT22;8843;48.838;9.324;2023-04-20T12:47:35;9.80;82.20
17452;DHT22;8843;48.838;9.324;2023-04-20T12:50:02;9.80;81.30
17452;DHT22;8843;48.838;9.324;2023-04-20T12:52:31;9.80;81.50
17452;DHT22;8843;48.838;9.324;2023-04-20T12:54:59;9.80;81.80
17452;DHT22;8843;48.838;9.324;2023-04-20T12:57:25;9.80;81.90
17452;DHT22;8843;48.838;9.324;2023-04-20T12:59:52;9.80;81.70
17452;DHT22;8843;48.838;9.324;2023-04-20T13:02:20;9.80;81.70
17452;DHT22;8843;48.838;9.324;2023-04-20T13:04:49;9.80;81.00
17452;DHT22;8843;48.838;9.324;2023-04-20T13:07:17;9.80;81.80
17452;DHT22;8843;48.838;9.324;2023-04-20T13:09:43;9.80;81.50
17452;DHT22;8843;48.838;9.324;2023-04-20T13:12:11;9.80;81.80
17452;DHT22;8843;48.838;9.324;2023-04-20T13:14:39;9.80;81.40
17452;DHT22;8843;48.838;9.324;2023-04-20T13:17:07;9.80;82.00
17452;DHT22;8843;48.838;9.324;2023-04-20T13:19:34;9.80;81.80
17452;DHT22;8843;48.838;9.324;2023-04-20T13:22:02;9.80;81.50
17452;DHT22;8843;48.838;9.324;2023-04-20T13:24:29;9.80;82.00
17452;DHT22;8843;48.838;9.324;2023-04-20T13:26:56;9.80;81.90
17452;DHT22;8843;48.838;9.324;2023-04-20T13:29:24;9.80;81.90
17452;DHT22;8843;48.838;9.324;2023-04-20T13:31:51;9.80;81.10
17452;DHT22;8843;48.838;9.324;2023-04-20T13:34:18;9.80;81.90
17452;DHT22;8843;48.838;9.324;2023-04-20T13:36:45;9.70;81.00
17452;DHT22;8843;48.838;9.324;2023-04-20T13:39:13;9.80;81.60
17452;DHT22;8843;48.838;9.324;2023-04-20T13:41:42;9.70;81.40
17452;DHT22;8843;48.838;9.324;2023-04-20T13:44:08;9.80;81.50
17452;DHT22;8843;48.838;9.324;2023-04-20T13:46:40;9.70;81.10
17452;DHT22;8843;48.838;9.324;2023-04-20T13:49:08;9.70;80.90
17452;DHT22;8843;48.838;9.324;2023-04-20T13:51:34;9.70;81.50
17452;DHT22;8843;48.838;9.324;2023-04-20T13:54:02;9.70;81.40
17452;DHT22;8843;48.838;9.324;2023-04-20T13:56:31;9.70;81.50
17452;DHT22;8843;48.838;9.324;2023-04-20T13:58:58;9.70;82.10
17452;DHT22;8843;48.838;9.324;2023-04-20T14:01:24;9.70;81.00
17452;DHT22;8843;48.838;9.324;2023-04-20T14:03:52;9.70;81.40
17452;DHT22;8843;48.838;9.324;2023-04-20T14:06:19;9.70;81.50
17452;DHT22;8843;48.838;9.324;2023-04-20T14:08:46;9.70;81.00
17452;DHT22;8843;48.838;9.324;2023-04-20T14:11:13;9.70;81.50
17452;DHT22;8843;48.838;9.324;2023-04-20T14:13:41;9.70;81.70
17452;DHT22;8843;48.838;9.324;2023-04-20T14:16:10;9.70;81.50
17452;DHT22;8843;48.838;9.324;2023-04-20T14:18:39;9.80;82.00
17452;DHT22;8843;48.838;9.324;2023-04-20T14:21:06;9.80;82.20
17452;DHT22;8843;48.838;9.324;2023-04-20T14:23:33;9.80;81.50
17452;DHT22;8843;48.838;9.324;2023-04-20T14:25:59;9.70;81.90
17452;DHT22;8843;48.838;9.324;2023-04-20T14:28:28;9.70;81.90
17452;DHT22;8843;48.838;9.324;2023-04-20T14:30:56;9.70;81.70
17452;DHT22;8843;48.838;9.324;2023-04-20T14:33:25;9.70;82.20
17452;DHT22;8843;48.838;9.324;2023-04-20T14:35:52;9.70;82.40
17452;DHT22;8843;48.838;9.324;2023-04-20T14:38:19;9.70;82.90
17452;DHT22;8843;48.838;9.324;2023-04-20T14:40:46;9.70;82.40
17452;DHT22;8843;48.838;9.324;2023-04-20T14:43:13;9.70;82.80
17452;DHT22;8843;48.838;9.324;2023-04-20T14:45:40;9.60;82.70
17452;DHT22;8843;48.838;9.324;2023-04-20T14:48:10;9.70;83.20
17452;DHT22;8843;48.838;9.324;2023-04-20T14:50:37;9.60;83.50
17452;DHT22;8843;48.838;9.324;2023-04-20T14:53:04;9.60;84.30
17452;DHT22;8843;48.838;9.324;2023-04-20T14:55:31;9.60;83.90
17452;DHT22;8843;48.838;9.324;2023-04-20T14:57:58;9.60;85.30
17452;DHT22;8843;48.838;9.324;2023-04-20T15:00:25;9.60;84.80
17452;DHT22;8843;48.838;9.324;2023-04-20T15:02:53;9.60;84.70
17452;DHT22;8843;48.838;9.324;2023-04-20T15:05:23;9.60;84.80
17452;DHT22;8843;48.838;9.324;2023-04-20T15:07:50;9.60;85.00
17452;DHT22;8843;48.838;9.324;2023-04-20T15:10:17;10.30;83.10
17452;DHT22;8843;48.838;9.324;2023-04-20T15:12:46;10.60;82.80
17452;DHT22;8843;48.838;9.324;2023-04-20T15:15:14;10.50;82.30
17452;DHT22;8843;48.838;9.324;2023-04-20T15:17:41;10.30;81.90
17452;DHT22;8843;48.838;9.324;2023-04-20T15:20:08;10.30;82.10
17452;DHT22;8843;48.838;9.324;2023-04-20T15:22:37;10.20;82.10
17452;DHT22;8843;48.838;9.324;2023-04-20T15:25:04;10.20;82.40
17452;DHT22;8843;48.838;9.324;2023-04-20T15:27:32;10.20;82.50
17452;DHT22;8843;48.838;9.324;2023-04-20T15:29:59;10.20;82.40
17452;DHT22;8843;48.838;9.324;2023-04-20T15:32:26;10.10;82.40
17452;DHT22;8843;48.838;9.324;2023-04-20T15:34:54;10.20;82.60
17452;DHT22;8843;48.838;9.324;2023-04-20T15:37:21;10.20;82.50
17452;DHT22;8843;48.838;9.324;2023-04-20T15:39:49;10.20;82.50
17452;DHT22;8843;48.838;9.324;2023-04-20T15:42:17;10.20;82.40
17452;DHT22;8843;48.838;9.324;2023-04-20T15:44:43;10.20;82.50
17452;DHT22;8843;48.838;9.324;2023-04-20T15:47:10;10.10;82.40
17452;DHT22;8843;48.838;9.324;2023-04-20T15:49:37;10.20;82.60
17452;DHT22;8843;48.838;9.324;2023-04-20T15:52:05;10.10;82.40